sensor_id;sensor_type;location;lat;lon;timestamp;P1;durP1;ratioP1;P2;durP2;ratioP2
5077;SDS011;2557;51.390;7.494;2023-02-14T00:02:02;18.58;;;10.75;;
5077;SDS011;2557;51.390;7.494;2023-02-14T00:04:28;15.20;;;11.27;;
5077;SDS011;2557;51.390;7.494;2023-02-14T00:06:54;15.55;;;10.77;;
5077;SDS011;2557;51.390;7.494;2023-02-14T00:09:21;17.55;;;10.10;;
5077;SDS011;2557;51.390;7.494;2023-02-14T00:11:47;15.75;;;8.68;;
5077;SDS011;2557;51.390;7.494;2023-02-14T00:14:13;18.67;;;9.75;;
5077;SDS011;2557;51.390;7.494;2023-02-14T00:16:58;11.00;;;7.90;;
5077;SDS011;2557;51.390;7.494;2023-02-14T00:19:24;15.23;;;8.57;;
5077;SDS011;2557;51.390;7.494;2023-02-14T00:21:50;11.63;;;7.50;;
5077;SDS011;2557;51.390;7.494;2023-02-14T00:24:17;8.85;;;7.03;;
5077;SDS011;2557;51.390;7.494;2023-02-14T00:26:43;8.25;;;6.47;;
5077;SDS011;2557;51.390;7.494;2023-02-14T00:29:10;9.13;;;7.10;;
5077;SDS011;2557;51.390;7.494;2023-02-14T00:31:37;8.60;;;7.00;;
5077;SDS011;2557;51.390;7.494;2023-02-14T00:34:03;10.10;;;7.22;;
5077;SDS011;2557;51.390;7.494;2023-02-14T00:36:29;18.60;;;8.90;;
5077;SDS011;2557;51.390;7.494;2023-02-14T00:38:55;13.87;;;8.37;;
5077;SDS011;2557;51.390;7.494;2023-02-14T00:41:22;15.15;;;9.25;;
5077;SDS011;2557;51.390;7.494;2023-02-14T00:43:49;10.73;;;7.78;;
5077;SDS011;2557;51.390;7.494;2023-02-14T00:46:15;16.88;;;9.07;;
5077;SDS011;2557;51.390;7.494;2023-02-14T00:48:41;13.30;;;8.55;;
5077;SDS011;2557;51.390;7.494;2023-02-14T00:51:08;15.03;;;9.80;;
5077;SDS011;2557;51.390;7.494;2023-02-14T00:53:34;12.48;;;8.65;;
5077;SDS011;2557;51.390;7.494;2023-02-14T00:56:00;13.88;;;8.20;;
5077;SDS011;2557;51.390;7.494;2023-02-14T00:58:26;13.27;;;6.55;;
5077;SDS011;2557;51.390;7.494;2023-02-14T01:00:52;14.88;;;8.10;;
5077;SDS011;2557;51.390;7.494;2023-02-14T01:03:19;11.77;;;7.60;;
5077;SDS011;2557;51.390;7.494;2023-02-14T01:05:45;12.10;;;7.32;;
5077;SDS011;2557;51.390;7.494;2023-02-14T01:08:12;14.32;;;7.53;;
5077;SDS011;2557;51.390;7.494;2023-02-14T01:10:38;11.38;;;7.35;;
5077;SDS011;2557;51.390;7.494;2023-02-14T01:13:04;14.20;;;7.88;;
5077;SDS011;2557;51.390;7.494;2023-02-14T01:15:30;12.18;;;7.90;;
5077;SDS011;2557;51.390;7.494;2023-02-14T01:17:57;9.93;;;7.45;;
5077;SDS011;2557;51.390;7.494;2023-02-14T01:20:23;10.50;;;7.50;;
5077;SDS011;2557;51.390;7.494;2023-02-14T01:22:49;12.25;;;7.95;;
5077;SDS011;2557;51.390;7.494;2023-02-14T01:25:15;13.53;;;6.90;;
5077;SDS011;2557;51.390;7.494;2023-02-14T01:27:41;12.45;;;7.45;;
5077;SDS011;2557;51.390;7.494;2023-02-14T01:30:07;9.48;;;7.30;;
5077;SDS011;2557;51.390;7.494;2023-02-14T01:32:33;9.43;;;7.22;;
5077;SDS011;2557;51.390;7.494;2023-02-14T01:34:59;13.23;;;7.93;;
5077;SDS011;2557;51.390;7.494;2023-02-14T01:37:26;10.13;;;6.00;;
5077;SDS011;2557;51.390;7.494;2023-02-14T01:39:52;9.63;;;7.03;;
5077;SDS011;2557;51.390;7.494;2023-02-14T01:42:18;10.67;;;6.90;;
5077;SDS011;2557;51.390;7.494;2023-02-14T01:47:10;11.47;;;8.13;;
5077;SDS011;2557;51.390;7.494;2023-02-14T01:49:46;10.45;;;6.93;;
5077;SDS011;2557;51.390;7.494;2023-02-14T01:52:18;9.35;;;7.28;;
5077;SDS011;2557;51.390;7.494;2023-02-14T01:54:47;14.80;;;8.93;;
5077;SDS011;2557;51.390;7.494;2023-02-14T01:57:14;10.23;;;7.57;;
5077;SDS011;2557;51.390;7.494;2023-02-14T01:59:42;11.88;;;7.55;;
5077;SDS011;2557;51.390;7.494;2023-02-14T02:02:10;17.23;;;7.88;;
5077;SDS011;2557;51.390;7.494;2023-02-14T02:04:37;14.90;;;8.00;;
5077;SDS011;2557;51.390;7.494;2023-02-14T02:07:05;9.70;;;7.40;;
5077;SDS011;2557;51.390;7.494;2023-02-14T02:09:32;10.25;;;7.00;;
5077;SDS011;2557;51.390;7.494;2023-02-14T02:11:59;13.15;;;7.80;;
5077;SDS011;2557;51.390;7.494;2023-02-14T02:14:25;19.00;;;8.73;;
5077;SDS011;2557;51.390;7.494;2023-02-14T02:22:35;9.15;;;5.78;;
5077;SDS011;2557;51.390;7.494;2023-02-14T02:25:09;19.98;;;7.15;;
5077;SDS011;2557;51.390;7.494;2023-02-14T02:32:59;15.63;;;7.55;;
5077;SDS011;2557;51.390;7.494;2023-02-14T02:35:39;8.05;;;6.63;;
5077;SDS011;2557;51.390;7.494;2023-02-14T02:43:37;12.68;;;7.30;;
5077;SDS011;2557;51.390;7.494;2023-02-14T02:46:24;20.50;;;6.57;;
5077;SDS011;2557;51.390;7.494;2023-02-14T02:49:16;10.38;;;6.43;;
5077;SDS011;2557;51.390;7.494;2023-02-14T02:52:50;14.05;;;7.00;;
5077;SDS011;2557;51.390;7.494;2023-02-14T02:55:35;12.68;;;6.97;;
5077;SDS011;2557;51.390;7.494;2023-02-14T02:58:21;11.23;;;8.07;;
5077;SDS011;2557;51.390;7.494;2023-02-14T03:00:49;13.57;;;7.97;;
5077;SDS011;2557;51.390;7.494;2023-02-14T03:03:15;10.50;;;7.75;;
5077;SDS011;2557;51.390;7.494;2023-02-14T03:06:11;13.40;;;8.95;;
5077;SDS011;2557;51.390;7.494;2023-02-14T03:08:37;15.32;;;9.20;;
5077;SDS011;2557;51.390;7.494;2023-02-14T03:11:03;12.73;;;8.03;;
5077;SDS011;2557;51.390;7.494;2023-02-14T03:13:36;14.68;;;9.40;;
5077;SDS011;2557;51.390;7.494;2023-02-14T03:16:26;13.93;;;8.95;;
5077;SDS011;2557;51.390;7.494;2023-02-14T03:24:08;14.83;;;7.70;;
5077;SDS011;2557;51.390;7.494;2023-02-14T03:26:38;14.63;;;8.13;;
5077;SDS011;2557;51.390;7.494;2023-02-14T03:29:13;12.30;;;7.40;;
5077;SDS011;2557;51.390;7.494;2023-02-14T03:31:51;10.55;;;8.40;;
5077;SDS011;2557;51.390;7.494;2023-02-14T03:34:21;14.23;;;9.20;;
5077;SDS011;2557;51.390;7.494;2023-02-14T03:37:00;10.50;;;6.90;;
5077;SDS011;2557;51.390;7.494;2023-02-14T03:39:38;13.30;;;8.48;;
5077;SDS011;2557;51.390;7.494;2023-02-14T03:42:10;19.50;;;7.28;;
5077;SDS011;2557;51.390;7.494;2023-02-14T03:44:37;14.20;;;7.65;;
5077;SDS011;2557;51.390;7.494;2023-02-14T03:47:09;10.73;;;7.40;;
5077;SDS011;2557;51.390;7.494;2023-02-14T03:49:40;10.48;;;7.18;;
5077;SDS011;2557;51.390;7.494;2023-02-14T03:52:08;10.85;;;6.30;;
5077;SDS011;2557;51.390;7.494;2023-02-14T03:54:35;6.95;;;6.00;;
5077;SDS011;2557;51.390;7.494;2023-02-14T03:57:11;12.82;;;6.75;;
5077;SDS011;2557;51.390;7.494;2023-02-14T03:59:38;8.77;;;6.20;;
5077;SDS011;2557;51.390;7.494;2023-02-14T04:02:12;8.25;;;6.22;;
5077;SDS011;2557;51.390;7.494;2023-02-14T04:04:41;11.18;;;6.88;;
5077;SDS011;2557;51.390;7.494;2023-02-14T04:07:18;14.05;;;8.15;;
5077;SDS011;2557;51.390;7.494;2023-02-14T04:09:44;12.10;;;7.15;;
5077;SDS011;2557;51.390;7.494;2023-02-14T04:12:10;12.68;;;7.90;;
5077;SDS011;2557;51.390;7.494;2023-02-14T04:14:36;11.13;;;6.70;;
5077;SDS011;2557;51.390;7.494;2023-02-14T04:17:02;14.73;;;7.55;;
5077;SDS011;2557;51.390;7.494;2023-02-14T04:19:47;15.65;;;7.95;;
5077;SDS011;2557;51.390;7.494;2023-02-14T04:22:13;7.90;;;6.40;;
5077;SDS011;2557;51.390;7.494;2023-02-14T04:24:39;7.70;;;5.63;;
5077;SDS011;2557;51.390;7.494;2023-02-14T04:27:05;10.80;;;7.82;;
5077;SDS011;2557;51.390;7.494;2023-02-14T04:29:35;9.40;;;6.57;;
5077;SDS011;2557;51.390;7.494;2023-02-14T04:32:01;13.23;;;6.43;;
5077;SDS011;2557;51.390;7.494;2023-02-14T04:34:27;10.70;;;7.35;;
5077;SDS011;2557;51.390;7.494;2023-02-14T04:36:53;16.90;;;7.50;;
5077;SDS011;2557;51.390;7.494;2023-02-14T04:39:19;9.77;;;7.50;;
5077;SDS011;2557;51.390;7.494;2023-02-14T04:41:45;7.97;;;6.43;;
5077;SDS011;2557;51.390;7.494;2023-02-14T04:44:11;12.63;;;7.57;;
5077;SDS011;2557;51.390;7.494;2023-02-14T04:46:37;10.07;;;7.73;;
5077;SDS011;2557;51.390;7.494;2023-02-14T04:49:03;13.30;;;8.73;;
5077;SDS011;2557;51.390;7.494;2023-02-14T04:51:29;9.27;;;7.13;;
5077;SDS011;2557;51.390;7.494;2023-02-14T04:53:55;8.25;;;6.40;;
5077;SDS011;2557;51.390;7.494;2023-02-14T04:56:21;12.20;;;6.77;;
5077;SDS011;2557;51.390;7.494;2023-02-14T04:58:49;13.52;;;7.25;;
5077;SDS011;2557;51.390;7.494;2023-02-14T05:01:16;10.80;;;7.50;;
5077;SDS011;2557;51.390;7.494;2023-02-14T05:03:42;11.73;;;7.07;;
5077;SDS011;2557;51.390;7.494;2023-02-14T05:06:07;11.20;;;8.03;;
5077;SDS011;2557;51.390;7.494;2023-02-14T05:08:33;13.03;;;7.53;;
5077;SDS011;2557;51.390;7.494;2023-02-14T05:10:59;14.27;;;8.32;;
5077;SDS011;2557;51.390;7.494;2023-02-14T05:13:25;11.40;;;8.00;;
5077;SDS011;2557;51.390;7.494;2023-02-14T05:15:52;11.07;;;8.57;;
5077;SDS011;2557;51.390;7.494;2023-02-14T05:18:18;15.33;;;8.10;;
5077;SDS011;2557;51.390;7.494;2023-02-14T05:20:44;14.50;;;8.13;;
5077;SDS011;2557;51.390;7.494;2023-02-14T05:23:13;12.82;;;7.80;;
5077;SDS011;2557;51.390;7.494;2023-02-14T05:25:40;11.23;;;7.25;;
5077;SDS011;2557;51.390;7.494;2023-02-14T05:28:06;12.52;;;7.75;;
5077;SDS011;2557;51.390;7.494;2023-02-14T05:30:32;14.17;;;7.13;;
5077;SDS011;2557;51.390;7.494;2023-02-14T05:32:59;12.27;;;7.27;;
5077;SDS011;2557;51.390;7.494;2023-02-14T05:35:25;13.43;;;7.88;;
5077;SDS011;2557;51.390;7.494;2023-02-14T05:37:51;16.33;;;7.82;;
5077;SDS011;2557;51.390;7.494;2023-02-14T05:40:17;12.05;;;7.97;;
5077;SDS011;2557;51.390;7.494;2023-02-14T05:42:43;13.63;;;8.27;;
5077;SDS011;2557;51.390;7.494;2023-02-14T05:45:10;13.65;;;8.88;;
5077;SDS011;2557;51.390;7.494;2023-02-14T05:47:36;13.68;;;9.25;;
5077;SDS011;2557;51.390;7.494;2023-02-14T05:50:02;14.13;;;8.93;;
5077;SDS011;2557;51.390;7.494;2023-02-14T05:52:28;12.10;;;7.30;;
5077;SDS011;2557;51.390;7.494;2023-02-14T05:54:54;12.93;;;7.65;;
5077;SDS011;2557;51.390;7.494;2023-02-14T05:57:20;11.30;;;7.47;;
5077;SDS011;2557;51.390;7.494;2023-02-14T05:59:46;12.77;;;8.70;;
5077;SDS011;2557;51.390;7.494;2023-02-14T06:02:12;14.43;;;8.60;;
5077;SDS011;2557;51.390;7.494;2023-02-14T06:04:39;14.35;;;9.63;;
5077;SDS011;2557;51.390;7.494;2023-02-14T06:07:05;14.73;;;8.95;;
5077;SDS011;2557;51.390;7.494;2023-02-14T06:09:32;14.32;;;8.77;;
5077;SDS011;2557;51.390;7.494;2023-02-14T06:11:58;20.30;;;10.07;;
5077;SDS011;2557;51.390;7.494;2023-02-14T06:14:24;10.40;;;7.55;;
5077;SDS011;2557;51.390;7.494;2023-02-14T06:16:50;13.65;;;8.75;;
5077;SDS011;2557;51.390;7.494;2023-02-14T06:19:16;8.60;;;6.85;;
5077;SDS011;2557;51.390;7.494;2023-02-14T06:21:42;13.47;;;7.67;;
5077;SDS011;2557;51.390;7.494;2023-02-14T06:24:08;10.80;;;8.07;;
5077;SDS011;2557;51.390;7.494;2023-02-14T06:26:34;12.23;;;7.10;;
5077;SDS011;2557;51.390;7.494;2023-02-14T06:29:00;12.77;;;8.10;;
5077;SDS011;2557;51.390;7.494;2023-02-14T06:31:26;12.02;;;7.15;;
5077;SDS011;2557;51.390;7.494;2023-02-14T06:33:52;16.65;;;10.40;;
5077;SDS011;2557;51.390;7.494;2023-02-14T06:36:19;14.40;;;9.70;;
5077;SDS011;2557;51.390;7.494;2023-02-14T06:38:45;13.32;;;8.10;;
5077;SDS011;2557;51.390;7.494;2023-02-14T06:41:12;13.50;;;8.30;;
5077;SDS011;2557;51.390;7.494;2023-02-14T06:43:38;12.18;;;8.00;;
5077;SDS011;2557;51.390;7.494;2023-02-14T06:46:04;11.83;;;7.67;;
5077;SDS011;2557;51.390;7.494;2023-02-14T06:48:31;17.10;;;9.00;;
5077;SDS011;2557;51.390;7.494;2023-02-14T06:50:57;20.75;;;10.02;;
5077;SDS011;2557;51.390;7.494;2023-02-14T06:53:23;14.55;;;9.38;;
5077;SDS011;2557;51.390;7.494;2023-02-14T06:55:49;15.73;;;8.90;;
5077;SDS011;2557;51.390;7.494;2023-02-14T06:58:15;12.90;;;8.70;;
5077;SDS011;2557;51.390;7.494;2023-02-14T07:00:41;12.43;;;7.83;;
5077;SDS011;2557;51.390;7.494;2023-02-14T07:03:07;15.70;;;10.13;;
5077;SDS011;2557;51.390;7.494;2023-02-14T07:05:33;12.93;;;8.10;;
5077;SDS011;2557;51.390;7.494;2023-02-14T07:07:59;12.43;;;8.00;;
5077;SDS011;2557;51.390;7.494;2023-02-14T07:10:26;12.70;;;7.95;;
5077;SDS011;2557;51.390;7.494;2023-02-14T07:12:52;14.52;;;9.40;;
5077;SDS011;2557;51.390;7.494;2023-02-14T07:15:18;14.23;;;8.57;;
5077;SDS011;2557;51.390;7.494;2023-02-14T07:17:44;15.98;;;9.30;;
5077;SDS011;2557;51.390;7.494;2023-02-14T07:20:10;14.25;;;9.32;;
5077;SDS011;2557;51.390;7.494;2023-02-14T07:22:37;13.15;;;9.23;;
5077;SDS011;2557;51.390;7.494;2023-02-14T07:25:03;16.45;;;9.93;;
5077;SDS011;2557;51.390;7.494;2023-02-14T07:27:30;14.43;;;9.85;;
5077;SDS011;2557;51.390;7.494;2023-02-14T07:29:56;13.38;;;10.23;;
5077;SDS011;2557;51.390;7.494;2023-02-14T07:32:22;13.77;;;9.00;;
5077;SDS011;2557;51.390;7.494;2023-02-14T07:34:48;21.20;;;9.57;;
5077;SDS011;2557;51.390;7.494;2023-02-14T07:37:14;18.98;;;10.45;;
5077;SDS011;2557;51.390;7.494;2023-02-14T07:39:41;18.80;;;10.82;;
5077;SDS011;2557;51.390;7.494;2023-02-14T07:42:07;17.30;;;9.63;;
5077;SDS011;2557;51.390;7.494;2023-02-14T07:44:34;15.35;;;9.88;;
5077;SDS011;2557;51.390;7.494;2023-02-14T07:47:02;19.25;;;10.07;;
5077;SDS011;2557;51.390;7.494;2023-02-14T07:49:28;22.45;;;11.02;;
5077;SDS011;2557;51.390;7.494;2023-02-14T07:51:54;23.27;;;11.70;;
5077;SDS011;2557;51.390;7.494;2023-02-14T07:54:20;18.10;;;10.90;;
5077;SDS011;2557;51.390;7.494;2023-02-14T07:56:46;20.52;;;12.07;;
5077;SDS011;2557;51.390;7.494;2023-02-14T07:59:12;25.80;;;11.47;;
5077;SDS011;2557;51.390;7.494;2023-02-14T08:01:38;46.37;;;17.13;;
5077;SDS011;2557;51.390;7.494;2023-02-14T08:04:04;28.52;;;15.85;;
5077;SDS011;2557;51.390;7.494;2023-02-14T08:06:30;42.22;;;19.00;;
5077;SDS011;2557;51.390;7.494;2023-02-14T08:08:56;32.63;;;19.95;;
5077;SDS011;2557;51.390;7.494;2023-02-14T08:11:22;38.87;;;19.87;;
5077;SDS011;2557;51.390;7.494;2023-02-14T08:14:07;43.15;;;21.55;;
5077;SDS011;2557;51.390;7.494;2023-02-14T08:16:33;38.28;;;19.38;;
5077;SDS011;2557;51.390;7.494;2023-02-14T08:18:59;32.10;;;19.30;;
5077;SDS011;2557;51.390;7.494;2023-02-14T08:21:26;32.22;;;17.40;;
5077;SDS011;2557;51.390;7.494;2023-02-14T08:23:52;35.20;;;17.70;;
5077;SDS011;2557;51.390;7.494;2023-02-14T08:26:18;32.13;;;17.00;;
5077;SDS011;2557;51.390;7.494;2023-02-14T08:28:44;33.47;;;17.70;;
5077;SDS011;2557;51.390;7.494;2023-02-14T08:31:10;26.52;;;13.18;;
5077;SDS011;2557;51.390;7.494;2023-02-14T08:33:36;22.65;;;12.80;;
5077;SDS011;2557;51.390;7.494;2023-02-14T08:36:02;23.00;;;15.32;;
5077;SDS011;2557;51.390;7.494;2023-02-14T08:38:28;24.45;;;14.02;;
5077;SDS011;2557;51.390;7.494;2023-02-14T08:40:58;27.98;;;16.27;;
5077;SDS011;2557;51.390;7.494;2023-02-14T08:43:24;25.55;;;15.40;;
5077;SDS011;2557;51.390;7.494;2023-02-14T08:45:51;27.00;;;15.50;;
5077;SDS011;2557;51.390;7.494;2023-02-14T08:48:17;35.78;;;20.08;;
5077;SDS011;2557;51.390;7.494;2023-02-14T08:50:44;29.08;;;16.27;;
5077;SDS011;2557;51.390;7.494;2023-02-14T08:53:10;30.23;;;15.83;;
5077;SDS011;2557;51.390;7.494;2023-02-14T08:55:37;25.80;;;15.18;;
5077;SDS011;2557;51.390;7.494;2023-02-14T08:58:03;35.85;;;17.45;;
5077;SDS011;2557;51.390;7.494;2023-02-14T09:00:30;28.80;;;16.40;;
5077;SDS011;2557;51.390;7.494;2023-02-14T09:02:57;24.25;;;14.40;;
5077;SDS011;2557;51.390;7.494;2023-02-14T09:05:23;28.95;;;16.52;;
5077;SDS011;2557;51.390;7.494;2023-02-14T09:07:49;26.42;;;15.55;;
5077;SDS011;2557;51.390;7.494;2023-02-14T09:10:15;27.30;;;14.77;;
5077;SDS011;2557;51.390;7.494;2023-02-14T09:12:42;23.77;;;15.00;;
5077;SDS011;2557;51.390;7.494;2023-02-14T09:15:09;25.90;;;13.50;;
5077;SDS011;2557;51.390;7.494;2023-02-14T09:17:36;19.27;;;12.97;;
5077;SDS011;2557;51.390;7.494;2023-02-14T09:20:03;23.87;;;13.40;;
5077;SDS011;2557;51.390;7.494;2023-02-14T09:22:30;23.93;;;13.80;;
5077;SDS011;2557;51.390;7.494;2023-02-14T09:24:56;21.23;;;14.33;;
5077;SDS011;2557;51.390;7.494;2023-02-14T09:27:22;21.10;;;12.50;;
5077;SDS011;2557;51.390;7.494;2023-02-14T09:29:48;18.33;;;12.87;;
5077;SDS011;2557;51.390;7.494;2023-02-14T09:32:14;19.10;;;13.00;;
5077;SDS011;2557;51.390;7.494;2023-02-14T09:34:40;22.90;;;13.17;;
5077;SDS011;2557;51.390;7.494;2023-02-14T09:37:25;17.50;;;12.27;;
5077;SDS011;2557;51.390;7.494;2023-02-14T09:40:13;14.03;;;10.60;;
5077;SDS011;2557;51.390;7.494;2023-02-14T09:42:44;15.43;;;11.33;;
5077;SDS011;2557;51.390;7.494;2023-02-14T09:45:14;11.17;;;9.97;;
5077;SDS011;2557;51.390;7.494;2023-02-14T09:50:12;11.93;;;10.20;;
5077;SDS011;2557;51.390;7.494;2023-02-14T09:52:42;11.63;;;9.43;;
5077;SDS011;2557;51.390;7.494;2023-02-14T09:55:11;13.70;;;10.20;;
5077;SDS011;2557;51.390;7.494;2023-02-14T09:58:01;12.53;;;9.20;;
5077;SDS011;2557;51.390;7.494;2023-02-14T10:00:32;12.80;;;8.97;;
5077;SDS011;2557;51.390;7.494;2023-02-14T10:03:02;14.10;;;9.50;;
5077;SDS011;2557;51.390;7.494;2023-02-14T10:05:35;11.40;;;9.03;;
5077;SDS011;2557;51.390;7.494;2023-02-14T10:10:52;13.60;;;9.27;;
5077;SDS011;2557;51.390;7.494;2023-02-14T10:13:42;11.60;;;8.20;;
5077;SDS011;2557;51.390;7.494;2023-02-14T10:16:18;11.67;;;8.77;;
5077;SDS011;2557;51.390;7.494;2023-02-14T10:18:49;9.30;;;8.40;;
5077;SDS011;2557;51.390;7.494;2023-02-14T10:21:31;8.93;;;8.03;;
5077;SDS011;2557;51.390;7.494;2023-02-14T10:24:03;9.80;;;8.80;;
5077;SDS011;2557;51.390;7.494;2023-02-14T10:26:38;11.13;;;8.30;;
5077;SDS011;2557;51.390;7.494;2023-02-14T10:29:05;9.67;;;8.33;;
5077;SDS011;2557;51.390;7.494;2023-02-14T10:31:46;8.30;;;7.50;;
5077;SDS011;2557;51.390;7.494;2023-02-14T10:34:31;8.93;;;7.07;;
5077;SDS011;2557;51.390;7.494;2023-02-14T10:44:52;9.73;;;7.90;;
5077;SDS011;2557;51.390;7.494;2023-02-14T10:55:11;6.53;;;5.93;;
5077;SDS011;2557;51.390;7.494;2023-02-14T10:57:43;7.47;;;6.70;;
5077;SDS011;2557;51.390;7.494;2023-02-14T11:00:20;10.23;;;6.77;;
5077;SDS011;2557;51.390;7.494;2023-02-14T11:02:49;7.63;;;6.83;;
5077;SDS011;2557;51.390;7.494;2023-02-14T11:05:26;9.87;;;6.97;;
5077;SDS011;2557;51.390;7.494;2023-02-14T11:07:53;9.10;;;7.40;;
5077;SDS011;2557;51.390;7.494;2023-02-14T11:10:22;9.03;;;6.20;;
5077;SDS011;2557;51.390;7.494;2023-02-14T11:12:49;8.13;;;7.30;;
5077;SDS011;2557;51.390;7.494;2023-02-14T11:15:31;11.60;;;6.67;;
5077;SDS011;2557;51.390;7.494;2023-02-14T11:20:43;6.53;;;5.93;;
5077;SDS011;2557;51.390;7.494;2023-02-14T11:23:23;6.93;;;6.30;;
5077;SDS011;2557;51.390;7.494;2023-02-14T11:25:50;6.73;;;6.13;;
5077;SDS011;2557;51.390;7.494;2023-02-14T11:28:17;6.30;;;5.70;;
5077;SDS011;2557;51.390;7.494;2023-02-14T11:30:44;6.50;;;5.80;;
5077;SDS011;2557;51.390;7.494;2023-02-14T11:33:12;6.13;;;4.87;;
5077;SDS011;2557;51.390;7.494;2023-02-14T11:35:38;9.97;;;6.00;;
5077;SDS011;2557;51.390;7.494;2023-02-14T11:38:05;7.00;;;5.30;;
5077;SDS011;2557;51.390;7.494;2023-02-14T11:40:37;6.87;;;5.60;;
5077;SDS011;2557;51.390;7.494;2023-02-14T11:45:38;8.90;;;5.00;;
5077;SDS011;2557;51.390;7.494;2023-02-14T11:48:11;5.40;;;4.40;;
5077;SDS011;2557;51.390;7.494;2023-02-14T11:50:40;4.97;;;4.60;;
5077;SDS011;2557;51.390;7.494;2023-02-14T11:53:08;5.13;;;4.60;;
5077;SDS011;2557;51.390;7.494;2023-02-14T11:55:35;4.73;;;4.20;;
5077;SDS011;2557;51.390;7.494;2023-02-14T11:58:02;3.83;;;3.53;;
5077;SDS011;2557;51.390;7.494;2023-02-14T12:00:29;4.20;;;3.90;;
5077;SDS011;2557;51.390;7.494;2023-02-14T12:02:57;4.70;;;4.30;;
5077;SDS011;2557;51.390;7.494;2023-02-14T12:05:29;5.50;;;4.77;;
5077;SDS011;2557;51.390;7.494;2023-02-14T12:08:02;4.40;;;4.00;;
5077;SDS011;2557;51.390;7.494;2023-02-14T12:10:29;7.63;;;3.40;;
5077;SDS011;2557;51.390;7.494;2023-02-14T12:12:57;5.93;;;3.60;;
5077;SDS011;2557;51.390;7.494;2023-02-14T12:17:51;4.40;;;4.10;;
5077;SDS011;2557;51.390;7.494;2023-02-14T12:20:33;5.73;;;4.33;;
5077;SDS011;2557;51.390;7.494;2023-02-14T12:23:01;4.17;;;3.67;;
5077;SDS011;2557;51.390;7.494;2023-02-14T12:25:53;3.67;;;3.37;;
5077;SDS011;2557;51.390;7.494;2023-02-14T12:28:18;3.20;;;2.90;;
5077;SDS011;2557;51.390;7.494;2023-02-14T12:30:47;9.63;;;3.60;;
5077;SDS011;2557;51.390;7.494;2023-02-14T12:33:18;3.90;;;3.60;;
5077;SDS011;2557;51.390;7.494;2023-02-14T12:35:46;3.80;;;3.50;;
5077;SDS011;2557;51.390;7.494;2023-02-14T12:38:20;3.37;;;3.07;;
5077;SDS011;2557;51.390;7.494;2023-02-14T12:40:53;4.23;;;3.83;;
5077;SDS011;2557;51.390;7.494;2023-02-14T12:48:51;5.67;;;4.10;;
5077;SDS011;2557;51.390;7.494;2023-02-14T12:51:39;3.80;;;3.30;;
5077;SDS011;2557;51.390;7.494;2023-02-14T12:57:11;3.77;;;3.47;;
5077;SDS011;2557;51.390;7.494;2023-02-14T12:59:45;3.60;;;3.20;;
5077;SDS011;2557;51.390;7.494;2023-02-14T13:02:18;3.57;;;3.27;;
5077;SDS011;2557;51.390;7.494;2023-02-14T13:10:36;3.33;;;3.13;;
5077;SDS011;2557;51.390;7.494;2023-02-14T13:13:05;3.77;;;3.37;;
5077;SDS011;2557;51.390;7.494;2023-02-14T13:20:55;5.27;;;4.07;;
5077;SDS011;2557;51.390;7.494;2023-02-14T13:25:56;5.10;;;3.70;;
5077;SDS011;2557;51.390;7.494;2023-02-14T13:28:24;8.03;;;4.67;;
5077;SDS011;2557;51.390;7.494;2023-02-14T13:30:50;4.60;;;4.20;;
5077;SDS011;2557;51.390;7.494;2023-02-14T13:35:42;4.33;;;3.70;;
5077;SDS011;2557;51.390;7.494;2023-02-14T13:38:10;3.93;;;3.40;;
5077;SDS011;2557;51.390;7.494;2023-02-14T13:40:37;5.70;;;3.60;;
5077;SDS011;2557;51.390;7.494;2023-02-14T13:43:03;3.33;;;3.03;;
5077;SDS011;2557;51.390;7.494;2023-02-14T13:50:37;5.20;;;3.50;;
5077;SDS011;2557;51.390;7.494;2023-02-14T13:53:04;4.07;;;3.40;;
5077;SDS011;2557;51.390;7.494;2023-02-14T13:55:33;5.90;;;3.70;;
5077;SDS011;2557;51.390;7.494;2023-02-14T14:00:42;6.50;;;3.50;;
5077;SDS011;2557;51.390;7.494;2023-02-14T14:03:11;4.77;;;3.30;;
5077;SDS011;2557;51.390;7.494;2023-02-14T14:08:33;5.77;;;3.83;;
5077;SDS011;2557;51.390;7.494;2023-02-14T14:19:08;4.37;;;3.43;;
5077;SDS011;2557;51.390;7.494;2023-02-14T14:21:36;5.63;;;3.60;;
5077;SDS011;2557;51.390;7.494;2023-02-14T14:24:25;3.60;;;3.30;;
5077;SDS011;2557;51.390;7.494;2023-02-14T14:26:59;6.03;;;3.20;;
5077;SDS011;2557;51.390;7.494;2023-02-14T14:31:52;9.20;;;4.07;;
5077;SDS011;2557;51.390;7.494;2023-02-14T14:34:23;5.90;;;5.00;;
5077;SDS011;2557;51.390;7.494;2023-02-14T14:36:49;6.07;;;3.33;;
5077;SDS011;2557;51.390;7.494;2023-02-14T14:39:26;4.10;;;3.70;;
5077;SDS011;2557;51.390;7.494;2023-02-14T14:41:52;6.37;;;4.40;;
5077;SDS011;2557;51.390;7.494;2023-02-14T14:44:18;5.27;;;4.47;;
5077;SDS011;2557;51.390;7.494;2023-02-14T14:46:44;4.57;;;4.00;;
5077;SDS011;2557;51.390;7.494;2023-02-14T14:49:10;4.40;;;4.00;;
5077;SDS011;2557;51.390;7.494;2023-02-14T14:51:37;6.27;;;4.13;;
5077;SDS011;2557;51.390;7.494;2023-02-14T14:54:04;5.10;;;4.07;;
5077;SDS011;2557;51.390;7.494;2023-02-14T14:56:32;3.90;;;3.50;;
5077;SDS011;2557;51.390;7.494;2023-02-14T14:59:18;4.30;;;3.10;;
5077;SDS011;2557;51.390;7.494;2023-02-14T15:01:44;5.43;;;4.00;;
5077;SDS011;2557;51.390;7.494;2023-02-14T15:04:24;8.10;;;3.50;;
5077;SDS011;2557;51.390;7.494;2023-02-14T15:06:51;4.10;;;3.70;;
5077;SDS011;2557;51.390;7.494;2023-02-14T15:09:20;9.40;;;4.63;;
5077;SDS011;2557;51.390;7.494;2023-02-14T15:11:46;4.40;;;4.00;;
5077;SDS011;2557;51.390;7.494;2023-02-14T15:14:32;7.93;;;3.47;;
5077;SDS011;2557;51.390;7.494;2023-02-14T15:16:59;5.50;;;3.77;;
5077;SDS011;2557;51.390;7.494;2023-02-14T15:19:30;4.43;;;4.03;;
5077;SDS011;2557;51.390;7.494;2023-02-14T15:22:02;6.20;;;3.40;;
5077;SDS011;2557;51.390;7.494;2023-02-14T15:24:29;7.40;;;4.90;;
5077;SDS011;2557;51.390;7.494;2023-02-14T15:26:57;6.67;;;4.23;;
5077;SDS011;2557;51.390;7.494;2023-02-14T15:29:24;5.90;;;4.00;;
5077;SDS011;2557;51.390;7.494;2023-02-14T15:31:51;8.07;;;3.93;;
5077;SDS011;2557;51.390;7.494;2023-02-14T15:34:19;13.87;;;4.20;;
5077;SDS011;2557;51.390;7.494;2023-02-14T15:36:46;9.63;;;5.20;;
5077;SDS011;2557;51.390;7.494;2023-02-14T15:39:16;11.20;;;4.50;;
5077;SDS011;2557;51.390;7.494;2023-02-14T15:41:43;6.50;;;4.27;;
5077;SDS011;2557;51.390;7.494;2023-02-14T15:44:20;10.70;;;5.03;;
5077;SDS011;2557;51.390;7.494;2023-02-14T15:46:46;10.80;;;4.37;;
5077;SDS011;2557;51.390;7.494;2023-02-14T15:49:15;9.80;;;4.33;;
5077;SDS011;2557;51.390;7.494;2023-02-14T15:51:41;6.70;;;4.47;;
5077;SDS011;2557;51.390;7.494;2023-02-14T15:56:52;7.90;;;3.37;;
5077;SDS011;2557;51.390;7.494;2023-02-14T15:59:24;6.40;;;4.60;;
5077;SDS011;2557;51.390;7.494;2023-02-14T16:01:57;6.73;;;4.67;;
5077;SDS011;2557;51.390;7.494;2023-02-14T16:04:28;8.20;;;4.23;;
5077;SDS011;2557;51.390;7.494;2023-02-14T16:07:28;6.63;;;3.53;;
5077;SDS011;2557;51.390;7.494;2023-02-14T16:09:47;5.90;;;4.43;;
5077;SDS011;2557;51.390;7.494;2023-02-14T16:14:57;3.70;;;3.40;;
5077;SDS011;2557;51.390;7.494;2023-02-14T16:17:30;7.37;;;3.97;;
5077;SDS011;2557;51.390;7.494;2023-02-14T16:19:58;4.40;;;4.00;;
5077;SDS011;2557;51.390;7.494;2023-02-14T16:22:26;5.23;;;3.60;;
5077;SDS011;2557;51.390;7.494;2023-02-14T16:24:59;5.73;;;4.30;;
5077;SDS011;2557;51.390;7.494;2023-02-14T16:27:25;5.40;;;4.27;;
5077;SDS011;2557;51.390;7.494;2023-02-14T16:29:51;3.93;;;3.50;;
5077;SDS011;2557;51.390;7.494;2023-02-14T16:32:21;5.87;;;3.90;;
5077;SDS011;2557;51.390;7.494;2023-02-14T16:34:48;3.90;;;3.07;;
5077;SDS011;2557;51.390;7.494;2023-02-14T16:37:30;9.23;;;4.00;;
5077;SDS011;2557;51.390;7.494;2023-02-14T16:40:00;3.57;;;3.17;;
5077;SDS011;2557;51.390;7.494;2023-02-14T16:42:26;3.23;;;2.70;;
5077;SDS011;2557;51.390;7.494;2023-02-14T16:44:52;5.80;;;3.20;;
5077;SDS011;2557;51.390;7.494;2023-02-14T16:47:19;4.57;;;3.27;;
5077;SDS011;2557;51.390;7.494;2023-02-14T16:49:45;4.63;;;3.10;;
5077;SDS011;2557;51.390;7.494;2023-02-14T16:52:12;7.23;;;4.20;;
5077;SDS011;2557;51.390;7.494;2023-02-14T16:54:39;6.87;;;4.30;;
5077;SDS011;2557;51.390;7.494;2023-02-14T16:57:15;7.43;;;3.73;;
5077;SDS011;2557;51.390;7.494;2023-02-14T16:59:41;6.13;;;4.07;;
5077;SDS011;2557;51.390;7.494;2023-02-14T17:02:07;9.67;;;4.97;;